createdAt,value
2018-09-25T00:03:40.676Z,88.47
2018-09-25T00:09:04.416Z,88.26
2018-09-25T00:14:28.143Z,89.23
2018-09-25T00:19:52.044Z,88.29
2018-09-25T00:25:16.723Z,88.67
2018-09-25T00:30:40.551Z,89.19
2018-09-25T00:36:04.377Z,88.67
2018-09-25T00:41:27.955Z,88.67
2018-09-25T00:46:51.779Z,88.04
2018-09-25T00:52:15.542Z,88.55
2018-09-25T00:57:39.181Z,89.57
2018-09-25T01:03:02.969Z,89.32
2018-09-25T01:08:26.791Z,89.33
2018-09-25T01:13:50.561Z,90.22
2018-09-25T01:19:14.346Z,89.33
2018-09-25T01:24:38.198Z,89.13
2018-09-25T01:30:01.883Z,88.45
2018-09-25T01:35:25.854Z,88.73
2018-09-25T01:40:49.599Z,88.99
2018-09-25T01:46:13.450Z,89.57
2018-09-25T01:51:37.248Z,89.23
2018-09-25T01:57:01.109Z,90.49
2018-09-25T02:02:24.820Z,89.12
2018-09-25T02:07:48.570Z,89.35
2018-09-25T02:13:12.266Z,89.90
2018-09-25T02:18:36.102Z,88.66
2018-09-25T02:24:00.048Z,89.97
2018-09-25T02:29:23.822Z,89.25
2018-09-25T02:34:47.583Z,89.02
2018-09-25T02:40:11.585Z,89.28
2018-09-25T02:45:35.436Z,89.70
2018-09-25T02:50:59.102Z,88.75
2018-09-25T02:56:22.888Z,88.38
2018-09-25T03:01:46.721Z,88.85
2018-09-25T03:07:10.605Z,89.76
2018-09-25T03:12:34.304Z,88.67
2018-09-25T03:17:58.037Z,89.72
2018-09-25T03:23:21.742Z,89.80
2018-09-25T03:28:45.684Z,89.55
2018-09-25T03:34:09.523Z,89.16
2018-09-25T03:39:33.395Z,89.73
2018-09-25T03:44:57.141Z,88.94
2018-09-25T03:50:21.020Z,89.29
2018-09-25T03:55:44.980Z,89.27
2018-09-25T04:01:09.166Z,88.62
2018-09-25T04:06:33.272Z,89.69
2018-09-25T04:11:57.284Z,90.49
2018-09-25T04:17:21.253Z,89.80
2018-09-25T04:22:45.232Z,89.17
2018-09-25T04:28:09.033Z,90.21
2018-09-25T04:33:33.131Z,89.59
2018-09-25T04:38:57.106Z,89.55
2018-09-25T04:44:21.093Z,89.97
2018-09-25T04:49:45.878Z,90.44
2018-09-25T04:55:10.023Z,89.72
2018-09-25T05:00:36.559Z,90.67
2018-09-25T05:06:00.526Z,89.70
2018-09-25T05:11:24.470Z,90.00
2018-09-25T05:16:48.418Z,90.27
2018-09-25T05:22:12.254Z,90.87
2018-09-25T05:27:35.904Z,90.20
2018-09-25T05:32:59.746Z,89.09
2018-09-25T05:38:23.922Z,90.78
2018-09-25T05:43:49.319Z,91.41
2018-09-25T05:49:13.412Z,90.08
2018-09-25T05:54:37.419Z,89.91
2018-09-25T06:00:01.402Z,89.76
2018-09-25T06:05:25.368Z,90.87
2018-09-25T06:10:49.172Z,90.76
2018-09-25T06:16:13.292Z,91.10
2018-09-25T06:21:36.973Z,90.31
2018-09-25T06:27:08.552Z,89.49
2018-09-25T06:32:32.443Z,89.84
2018-09-25T06:37:56.311Z,89.27
2018-09-25T06:43:20.085Z,90.65
2018-09-25T06:48:43.791Z,90.90
2018-09-25T06:54:07.725Z,90.07
2018-09-25T06:59:31.672Z,89.01
2018-09-25T07:04:55.459Z,89.22
2018-09-25T07:10:19.353Z,88.92
2018-09-25T07:15:43.052Z,90.03
2018-09-25T07:21:06.836Z,90.96
2018-09-25T07:26:30.874Z,91.85
2018-09-25T07:31:54.912Z,90.28
2018-09-25T07:37:18.778Z,89.61
2018-09-25T07:42:42.602Z,90.21
2018-09-25T07:48:06.337Z,90.68
2018-09-25T07:53:30.105Z,91.61
2018-09-25T07:58:54.080Z,91.27
2018-09-25T08:04:17.727Z,91.15
2018-09-25T08:09:41.620Z,90.59
2018-09-25T08:15:05.642Z,90.60
2018-09-25T08:20:29.569Z,90.72
2018-09-25T08:25:53.566Z,89.31
2018-09-25T08:31:17.402Z,88.22
2018-09-25T08:36:41.365Z,87.89
2018-09-25T08:42:05.183Z,84.89
2018-09-25T08:47:29.332Z,81.31
2018-09-25T08:52:53.398Z,79.65
2018-09-25T08:58:17.691Z,81.96
2018-09-25T09:03:41.878Z,78.33
2018-09-25T09:09:05.753Z,77.82
2018-09-25T09:14:29.859Z,78.22
2018-09-25T09:19:53.851Z,71.53
2018-09-25T09:25:17.731Z,72.53
2018-09-25T09:30:41.714Z,75.18
2018-09-25T09:36:05.718Z,69.44
2018-09-25T09:41:29.602Z,70.13
2018-09-25T09:46:53.459Z,69.06
2018-09-25T09:52:17.255Z,72.71
2018-09-25T09:57:41.059Z,70.60
2018-09-25T10:03:05.051Z,64.18
2018-09-25T10:08:29.727Z,64.61
2018-09-25T10:13:53.674Z,63.48
2018-09-25T10:19:17.475Z,61.93
2018-09-25T10:24:41.510Z,62.86
2018-09-25T10:30:05.565Z,64.37
2018-09-25T10:35:29.390Z,64.59
2018-09-25T10:40:53.393Z,64.93
2018-09-25T10:46:17.146Z,64.74
2018-09-25T10:51:41.149Z,65.84
2018-09-25T10:57:04.895Z,63.41
2018-09-25T11:02:28.660Z,63.76
2018-09-25T11:07:52.524Z,65.43
2018-09-25T11:13:16.393Z,63.52
2018-09-25T11:18:40.243Z,66.49
2018-09-25T11:24:04.314Z,60.77
2018-09-25T11:29:28.159Z,61.34
2018-09-25T11:34:51.983Z,59.29
2018-09-25T11:40:15.785Z,61.05
2018-09-25T11:45:39.494Z,57.76
2018-09-25T11:51:03.385Z,55.96
2018-09-25T11:56:27.273Z,53.25
2018-09-25T12:01:51.048Z,52.22
2018-09-25T12:07:14.901Z,54.50
2018-09-25T12:12:38.703Z,54.46
2018-09-25T12:18:02.374Z,57.22
2018-09-25T12:23:26.178Z,57.35
2018-09-25T12:28:49.894Z,58.33
2018-09-25T12:34:13.590Z,57.54
2018-09-25T12:39:37.448Z,59.58
2018-09-25T12:45:01.240Z,61.19
2018-09-25T12:50:25.212Z,63.18
2018-09-25T12:55:48.901Z,61.88
2018-09-25T13:01:12.859Z,61.66
2018-09-25T13:06:36.576Z,61.56
2018-09-25T13:12:00.440Z,64.80
2018-09-25T13:17:24.187Z,64.05
2018-09-25T13:22:48.027Z,59.66
2018-09-25T13:28:11.781Z,59.16
2018-09-25T13:33:35.557Z,59.04
2018-09-25T13:38:59.287Z,57.22
2018-09-25T13:44:23.144Z,56.47
2018-09-25T13:49:46.772Z,56.24
2018-09-25T13:55:11.182Z,59.68
2018-09-25T14:00:34.856Z,60.13
2018-09-25T14:05:58.677Z,55.33
2018-09-25T14:11:22.511Z,59.81
2018-09-25T14:16:46.384Z,56.73
2018-09-25T14:22:10.176Z,56.90
2018-09-25T14:27:33.988Z,57.92
2018-09-25T14:32:57.926Z,56.57
2018-09-25T14:38:21.674Z,55.43
2018-09-25T14:43:45.412Z,55.95
2018-09-25T14:49:09.296Z,58.04
2018-09-25T14:54:33.135Z,57.21
2018-09-25T14:59:56.844Z,51.53
2018-09-25T15:05:20.578Z,53.58
2018-09-25T15:10:44.424Z,53.11
2018-09-25T15:16:08.157Z,53.15
2018-09-25T15:21:32.058Z,53.40
2018-09-25T15:26:55.783Z,55.35
2018-09-25T15:32:19.578Z,56.87
2018-09-25T15:37:43.306Z,57.14
2018-09-25T15:43:07.068Z,55.37
2018-09-25T15:48:30.935Z,55.92
2018-09-25T15:53:54.613Z,56.28
2018-09-25T15:59:18.419Z,58.01
2018-09-25T16:04:42.161Z,59.52
2018-09-25T16:10:05.837Z,60.58
2018-09-25T16:15:29.633Z,62.34
2018-09-25T16:20:53.371Z,61.94
2018-09-25T16:26:17.068Z,63.75
2018-09-25T16:31:40.791Z,64.04
2018-09-25T16:37:04.692Z,63.71
2018-09-25T16:42:28.408Z,64.33
2018-09-25T16:47:52.279Z,65.68
2018-09-25T16:53:15.972Z,66.17
2018-09-25T16:58:39.835Z,65.73
2018-09-25T17:04:03.660Z,66.76
2018-09-25T17:09:27.247Z,66.95
2018-09-25T17:14:50.936Z,68.75
2018-09-25T17:20:14.780Z,70.15
2018-09-25T17:25:38.646Z,70.56
2018-09-25T17:31:02.383Z,71.79
2018-09-25T17:36:26.116Z,72.59
2018-09-25T17:41:49.927Z,73.04
2018-09-25T17:47:13.618Z,73.64
2018-09-25T17:52:37.384Z,73.89
2018-09-25T17:58:01.226Z,75.62
2018-09-25T18:03:25.026Z,76.85
2018-09-25T18:08:48.967Z,76.72
2018-09-25T18:14:13.055Z,76.75
2018-09-25T18:19:36.812Z,78.03
2018-09-25T18:25:00.487Z,78.24
2018-09-25T18:30:24.240Z,77.86
2018-09-25T18:35:48.012Z,79.27
2018-09-25T18:41:11.773Z,80.08
2018-09-25T18:46:35.596Z,81.86
2018-09-25T18:51:59.449Z,80.87
2018-09-25T18:57:23.498Z,81.64
2018-09-25T19:02:47.183Z,81.61
2018-09-25T19:08:10.778Z,81.98
2018-09-25T19:13:34.436Z,82.33
2018-09-25T19:18:58.313Z,84.03
2018-09-25T19:24:21.948Z,84.18
2018-09-25T19:29:45.669Z,82.94
2018-09-25T19:35:09.615Z,82.36
2018-09-25T19:40:33.692Z,83.52
2018-09-25T19:45:57.542Z,83.44
2018-09-25T19:51:21.197Z,83.18
2018-09-25T19:56:45.052Z,85.07
2018-09-25T20:02:08.763Z,84.44
2018-09-25T20:07:32.537Z,83.50
2018-09-25T20:12:56.580Z,84.28
2018-09-25T20:18:20.249Z,84.69
2018-09-25T20:23:43.973Z,84.42
2018-09-25T20:29:07.825Z,85.71
2018-09-25T20:34:31.711Z,84.90
2018-09-25T20:39:56.499Z,86.91
2018-09-25T20:45:20.183Z,86.42
2018-09-25T20:50:44.310Z,85.57
2018-09-25T20:56:08.017Z,84.61
2018-09-25T21:01:31.873Z,85.69
2018-09-25T21:06:55.671Z,85.77
2018-09-25T21:12:19.304Z,85.71
2018-09-25T21:17:43.133Z,85.44
2018-09-25T21:23:08.740Z,87.20
2018-09-25T21:28:32.657Z,86.98
2018-09-25T21:33:56.315Z,85.99
2018-09-25T21:39:19.915Z,86.17
2018-09-25T21:44:43.607Z,86.51
2018-09-25T21:50:07.437Z,85.84
2018-09-25T21:55:31.081Z,86.27
2018-09-25T22:00:54.800Z,86.77
2018-09-25T22:06:18.655Z,86.71
2018-09-25T22:11:42.485Z,87.51
2018-09-25T22:17:06.298Z,87.27
2018-09-25T22:22:29.944Z,87.86
2018-09-25T22:27:53.644Z,87.54
2018-09-25T22:33:17.275Z,87.25
2018-09-25T22:38:41.063Z,86.51
2018-09-25T22:44:04.909Z,86.37
2018-09-25T22:49:28.745Z,86.56
2018-09-25T22:54:52.654Z,87.16
2018-09-25T23:00:16.285Z,86.24
2018-09-25T23:05:40.039Z,86.70
2018-09-25T23:11:03.722Z,86.18
2018-09-25T23:16:27.390Z,86.04
2018-09-25T23:21:51.105Z,86.20
2018-09-25T23:27:14.820Z,86.25
2018-09-25T23:32:38.709Z,86.76
2018-09-25T23:38:02.574Z,86.48
2018-09-25T23:43:34.307Z,86.49
2018-09-25T23:48:57.986Z,86.80
2018-09-25T23:54:25.202Z,86.36
2018-09-25T23:59:55.808Z,87.23
